Station: Point Avoid

  Atmospheric Gas Attenuation - ITU Rec 676-11   --------------- db/100km ---------------
Date Time Temp RH % AH g/m3 Dew Point Wind Direction Speed kph Gust kph Barometer mB Rainfall Since 9am 24GHz 47GHz 76GHz 122GHz 134GHz 241GHz
21 19:50 13.5 72 8.42 8.5 43 52 1013.1 2.2 19.2 25.7 39.2 102.9 96.4 331.4
21 19:40 13.3 85 9.82 10.8 37 50 1013.1 2.2 22.2 28.1 45.1 118.6 115.6 398.6
21 19:30 13 84 9.53 10.4 43 61 1006.7 2.2 21.6 27.4 43.7 115.0 111.5 384.1
21 19:20 12.8 86 9.63 10.5 39 48 1013.1 2.2 21.8 27.9 44.6 117.2 113.7 392.0
21 19:10 12.5 88 9.68 10.5 37 46 1013.1 2.2 22.0 28.1 45.0 118.2 114.9 395.9
21 19:00 12.1 92 9.87 10.8 35 46 1006.3 2.2 22.4 28.3 45.7 120.2 117.5 405.2
21 18:50 11.8 92 9.68 10.5 37 46 1013.1 2.2 22.0 28.3 45.4 119.3 115.9 399.5
21 18:40 12.2 87 9.39 10.2 44 57 1013.1 2 21.4 27.7 43.9 115.4 111.3 383.3
21 18:30 12.4 84 9.18 9.8 44 69 1005.9 2 20.9 27.0 42.6 111.9 107.4 370.0
21 18:20 12.8 85 9.52 10.3 37 48 1013.1 2 21.6 27.7 44.1 115.9 112.2 386.6
21 18:10 12.5 86 9.46 10.2 41 52 1013.1 2 21.5 27.7 44.0 115.7 111.8 385.2
21 18:00 12.1 89 9.55 10.3 39 56 1005.7 2 21.7 27.7 44.3 116.5 113.0 389.3
21 17:50 11.8 95 10 11 37 44 1013.1 2 22.7 28.9 46.7 123.0 120.5 415.4
21 17:40 12.8 90 10.08 11.2 54 74 1013.1 2 22.8 28.7 46.5 122.3 120.0 414.0
21 17:30 12.6 93 10.29 11.5 41 59 1005.2 2 23.3 28.8 47.1 124.1 122.6 422.9
21 17:20 13 90 10.21 11.4 43 48 1013.1 1.8 23.1 28.8 46.9 123.5 121.5 419.3
21 17:10 13.7 81 9.59 10.6 39 44 1013.1 1.6 21.7 27.6 43.9 115.4 111.8 385.5
21 17:00 14 83 10.01 11.2 43 57 1004.8 1.6 22.6 27.8 45.1 118.7 116.4 401.6
21 16:50 14.3 81 9.95 11.1 37 56 1004.8 1.6 22.5 27.6 44.7 117.6 115.1 397.2
21 16:40 14.3 80 9.83 11 44 48 1013.1 1.6 22.2 27.8 44.6 117.2 114.3 394.0
21 16:30 13.8 86 10.25 11.5 37 50 1004.5 1.6 23.1 28.3 46.2 121.7 120.0 414.2
21 16:20 13.4 86 10 11.1 46 54 1013.1 1.6 22.6 28.3 45.8 120.4 118.0 406.9
21 16:10 14.4 81 10.01 11.3 35 43 1013.1 1.6 22.6 28.0 45.3 119.0 116.6 402.2
21 16:00 14.5 80 9.95 11.1 35 44 1004.3 1.6 22.5 27.6 44.5 117.2 114.8 396.0
21 15:50 14.5 80 9.95 11.2 33 43 1013.1 1.6 22.4 27.9 44.9 118.2 115.6 398.8
21 15:40 14 81 9.77 10.8 46 56 1013.1 1.6 22.1 27.8 44.5 116.9 113.9 392.7
21 15:30 14.5 82 10.2 11.5 35 48 1004.2 1.6 23.0 28.0 45.6 120.0 118.2 407.9
21 15:20 14.3 85 10.44 11.8 37 44 1013.1 1.6 23.5 28.8 47.1 124.0 122.7 423.6
21 15:10 13.9 84 10.07 11.2 43 52 1013.1 1.6 22.7 28.3 45.8 120.5 118.2 407.7
21 15:00 14.9 79 10.07 11.3 39 50 1004 1.6 22.7 27.6 44.8 117.9 115.8 399.6
21 14:50 15.6 78 10.37 11.9 35 44 1013.1 1.6 23.3 28.3 46.1 121.2 119.7 413.2
21 14:40 14.9 83 10.58 12 33 41 1013.1 1.6 23.8 28.8 47.4 124.7 123.7 427.1
21 14:30 15.1 86 11.09 12.8 35 52 1004 1.6 24.9 29.3 49.0 129.0 129.6 447.8
21 14:20 14.7 85 10.7 12.2 37 43 1013.1 1.6 24.0 29.1 48.0 126.3 125.7 434.1
21 14:10 14.4 86 10.63 12.1 43 48 1013.1 1.6 23.9 29.1 47.9 126.0 125.2 432.3
21 14:00 13.8 84 10.01 11.1 43 54 1004.1 1.6 22.6 27.9 45.2 118.9 116.6 402.4
21 13:50 13.6 86 10.12 11.4 43 52 1013.1 1.6 22.9 28.5 46.2 121.5 119.3 411.7
21 13:40 13.6 86 10.12 11.3 44 56 1013.1 1.6 22.9 28.5 46.2 121.5 119.3 411.7
21 13:30 13 93 10.55 11.9 44 57 1004 1.6 23.8 29.1 47.9 126.3 125.5 433.2
21 13:20 10.8 87 8.6 8.7 48 57 1013.1 1.6 19.7 26.8 41.3 108.5 102.3 351.7
21 13:10 15.6 73 9.71 10.9 46 52 1013.1 0 21.9 27.2 43.3 113.9 110.7 381.9
21 13:00 16.4 75 10.47 12 39 54 1003.6 0 23.5 27.8 45.6 120.0 118.9 410.6
21 12:50 16 73 9.95 11.3 44 52 1013.1 0 22.4 27.4 44.1 116.0 113.4 391.2
21 12:40 15.9 76 10.29 11.8 41 44 1013.1 0 23.1 28.0 45.6 119.8 118.1 407.8
21 12:30 15.3 76 9.92 11.1 48 65 1003.9 0 22.4 27.2 43.9 115.6 113.2 390.4
21 12:20 15.4 70 9.2 10 43 63 1003.7 0 20.8 26.0 41.0 107.7 103.4 356.4
21 12:10 15.5 70 9.25 10 41 50 1013.1 0 20.9 26.4 41.5 109.1 104.7 360.9
21 12:00 16.6 69 9.75 10.9 43 59 1003.7 0 21.9 26.6 42.5 111.9 109.0 376.0
21 11:50 16.3 65 9.02 9.7 43 50 1013.1 0 20.4 25.8 40.2 105.6 100.7 346.8
21 11:40 16.1 65 8.91 9.5 44 54 1013.1 0 20.1 25.7 39.9 104.7 99.5 342.7
21 11:30 16.1 66 9.05 9.8 43 59 1003.7 0 20.5 25.6 40.0 105.2 100.5 346.4
21 11:20 16 66 8.99 9.6 39 48 1013.1 0 20.3 25.9 40.2 105.7 100.7 346.8
21 11:10 15.8 65 8.75 9.4 44 54 1013.1 0 19.8 25.6 39.4 103.4 97.8 336.7
21 11:00 15.8 69 9.29 10.1 43 56 1003.5 0 21.0 26.1 41.1 108.1 104.0 358.6
21 10:50 14.7 72 9.07 9.7 43 52 1013.1 0 20.5 26.4 41.2 108.3 103.4 356.2
21 10:40 16 69 9.4 10.3 43 48 1013.1 0 21.2 26.5 41.9 110.0 106.0 365.5
21 10:30 15.1 67 8.64 9 46 59 1003.2 0 19.6 25.2 38.9 102.1 96.5 332.0
21 10:20 15.6 70 9.31 10.1 41 48 1013.1 0 21.0 26.5 41.7 109.6 105.4 363.2
21 10:10 15.6 69 9.18 9.9 41 61 1003 0 20.8 25.9 40.7 107.1 102.8 354.3
21 10:00 15.4 68 8.93 9.5 44 59 1002.9 0 20.2 25.6 39.8 104.7 99.8 343.8
21 09:50 15.4 72 9.46 10.5 39 48 1013.1 0 21.3 26.8 42.4 111.5 107.7 371.1
21 09:40 15.1 73 9.42 10.3 48 54 1013.1 0 21.3 26.8 42.4 111.5 107.6 370.7
21 09:30 14.9 74 9.43 10.3 52 70 1002.4 0 21.3 26.5 42.1 110.7 107.0 368.9
21 09:20 14.8 75 9.5 10.4 59 72 1013.1 0 21.5 27.1 42.9 112.8 109.0 375.9
21 09:10 14.8 76 9.63 10.6 50 59 1013.1 0 21.7 27.3 43.4 114.2 110.8 382.0
21 09:00 14.7 79 9.95 11.1 52 72 1002 0 22.5 27.4 44.3 116.6 114.3 394.2
21 08:50 14.5 79 9.83 10.9 50 61 1013.1 3.6 22.2 27.7 44.4 116.9 114.0 393.0
21 08:40 13.8 85 10.13 11.3 52 69 1013.1 3.6 22.9 28.4 46.1 121.3 119.2 411.1
21 08:30 14.2 85 10.38 11.7 48 69 1001.4 3.6 23.4 28.3 46.4 122.1 120.9 417.3
21 08:20 13.4 84 9.77 10.7 61 70 1013.1 3.6 22.1 27.9 44.8 117.8 114.8 395.7
21 08:10 14.1 83 10.07 11.2 48 61 1013.1 3.6 22.7 28.2 45.7 120.2 117.9 406.6
21 08:00 13.6 85 10 11.1 52 70 1001 3.6 22.6 27.8 45.1 118.7 116.5 402.0
21 07:50 13.3 90 10.4 11.7 46 56 1013.1 3.6 23.5 29.1 47.6 125.2 123.8 427.1
21 07:40 12.5 90 9.9 11 54 65 1013.1 3.6 22.4 28.5 45.9 120.7 118.0 406.7
21 07:30 12.5 86 9.46 10.2 52 80 1001 2.8 21.5 27.2 43.4 114.3 110.7 381.5
21 07:20 13.4 82 9.53 10.4 59 76 1013.1 2.8 21.6 27.5 43.8 115.2 111.5 384.1
21 07:10 13.8 83 9.89 10.9 50 57 1013.1 2.6 22.4 28.0 45.1 118.6 115.8 399.5
21 07:00 13.1 87 9.93 11 44 63 1000.5 2.6 22.5 27.8 45.1 118.7 116.3 401.0
21 06:50 12.6 86 9.52 10.3 50 57 1013.1 2.6 21.6 27.8 44.2 116.2 112.5 387.6
21 06:40 11.8 90 9.47 10.3 43 56 1013.1 2.6 21.6 27.9 44.5 116.9 113.0 389.2
21 06:30 12 85 9.06 9.6 43 69 1001.1 1.4 20.7 26.7 42.1 110.6 105.9 364.7
21 06:20 13 89 10.09 11.2 35 41 1013.1 0.2 22.8 28.6 46.4 122.1 119.9 413.4
21 06:10 11.9 87 9.22 9.8 24 30 1013.1 0.2 21.0 27.5 43.3 113.9 109.3 376.5
21 06:00 11.9 87 9.22 9.8 28 39 1000.5 0.2 21.0 27.0 42.7 112.5 108.2 372.7
21 05:50 12.1 86 9.22 9.8 28 35 1013.1 0.2 21.0 27.4 43.2 113.6 109.1 375.5
21 05:40 12.1 86 9.22 9.8 26 35 1013.1 0.2 21.0 27.4 43.2 113.6 109.1 375.5
21 05:30 12.4 87 9.51 10.3 28 33 1000.6 0.2 21.6 27.3 43.7 115.0 111.5 384.3
21 05:20 12.7 85 9.46 10.2 26 33 1013.1 0.2 21.5 27.6 43.9 115.4 111.5 384.2
21 05:10 13 85 9.64 10.5 32 39 1013.1 0.2 21.9 27.9 44.5 117.0 113.6 391.4
21 04:50 14 75 9.05 9.6 28 33 1013.1 0.2 20.5 26.6 41.5 109.0 104.1 358.5
21 04:40 14 72 8.68 9 30 41 1013.1 0.2 19.8 26.0 40.0 105.0 99.2 341.3
21 04:30 13.9 73 8.75 9.1 30 44 1000.9 0.2 19.9 25.6 39.8 104.6 99.2 341.6
21 04:20 13.9 73 8.75 9.1 32 37 1013.1 0.2 19.9 26.1 40.3 105.9 100.2 345.0
21 04:10 13.9 74 8.87 9.3 30 37 1013.1 0.2 20.2 26.3 40.8 107.2 101.8 350.5
21 04:00 13.8 75 8.94 9.5 28 39 1001.4 0.2 20.3 26.0 40.6 106.8 101.9 350.9
21 03:50 13.8 73 8.7 9 28 35 1013.1 0.2 19.8 26.1 40.2 105.5 99.7 343.1
21 03:40 13.8 73 8.7 9 28 33 1013.1 0.2 19.8 26.1 40.2 105.5 99.7 343.1
21 03:30 13.7 73 8.64 9 26 35 1001.8 0.2 19.7 25.6 39.5 103.8 98.1 337.6
21 03:20 13.7 74 8.76 9.1 26 33 1013.1 0.2 19.9 26.2 40.5 106.3 100.6 346.3
21 03:10 13.8 72 8.58 8.8 26 32 1013.1 0.2 19.5 25.9 39.7 104.2 98.1 337.5

Last Refresh: 21-Sep-2020 19:58:16

Most of the information presented on this site is sourced from the Bureau of Meteorology.  Copyright in all material sourced from the Bureau of Meteorology resides with the Commonwealth of Australia.